createdAt,value
2023-01-01T00:03:34.644Z,68.28
2023-01-01T00:08:40.872Z,67.96
2023-01-01T00:13:47.839Z,67.54
2023-01-01T00:19:12.997Z,66.81
2023-01-01T00:24:22.532Z,66.93
2023-01-01T00:35:20.141Z,65.88
2023-01-01T00:40:26.046Z,65.69
2023-01-01T00:45:37.197Z,65.55
2023-01-01T00:50:46.532Z,65.89
2023-01-01T00:55:59.603Z,66.07
2023-01-01T01:06:31.821Z,66.76
2023-01-01T01:12:18.124Z,67.20
2023-01-01T01:17:31.596Z,68.26
2023-01-01T01:22:42.083Z,68.61
2023-01-01T01:27:52.288Z,68.60
2023-01-01T01:32:57.498Z,68.88
2023-01-01T01:38:03.785Z,69.04
2023-01-01T01:43:15.412Z,68.88
2023-01-01T01:48:19.968Z,68.42
2023-01-01T01:53:31.330Z,68.07
2023-01-01T01:58:43.183Z,67.32
2023-01-01T02:04:06.169Z,67.09
2023-01-01T02:09:18.648Z,66.56
2023-01-01T02:14:27.388Z,66.99
2023-01-01T02:19:46.672Z,67.23
2023-01-01T02:25:14.662Z,67.36
2023-01-01T02:30:45.859Z,67.66
2023-01-01T02:36:09.938Z,67.87
2023-01-01T02:41:27.775Z,67.87
2023-01-01T02:46:51.987Z,68.22
2023-01-01T02:52:07.881Z,68.01
2023-01-01T02:57:25.443Z,68.59
2023-01-01T03:03:07.564Z,69.05
2023-01-01T03:08:19.118Z,69.94
2023-01-01T03:13:42.789Z,70.05
2023-01-01T03:19:15.968Z,70.31
2023-01-01T03:24:27.238Z,71.21
2023-01-01T03:29:54.038Z,71.53
2023-01-01T03:35:36.604Z,71.42
2023-01-01T03:40:45.232Z,71.23
2023-01-01T03:45:58.246Z,72.01
2023-01-01T03:51:26.641Z,71.74
2023-01-01T03:56:44.989Z,72.23
2023-01-01T04:01:57.306Z,72.18
2023-01-01T04:07:15.286Z,72.65
2023-01-01T04:12:23.712Z,72.08
2023-01-01T04:17:29.177Z,72.01
2023-01-01T04:22:35.157Z,72.48
2023-01-01T04:27:39.465Z,72.59
2023-01-01T04:32:44.125Z,72.62
2023-01-01T04:37:53.480Z,73.11
2023-01-01T04:42:58.226Z,73.04
2023-01-01T04:48:07.298Z,72.75
2023-01-01T04:53:13.229Z,73.37
2023-01-01T04:58:20.361Z,72.88
2023-01-01T05:03:32.461Z,73.23
2023-01-01T05:08:49.438Z,73.99
2023-01-01T05:14:01.546Z,73.42
2023-01-01T05:19:12.199Z,74.22
2023-01-01T05:24:23.028Z,74.31
2023-01-01T05:29:31.095Z,73.70
2023-01-01T05:39:46.354Z,74.05
2023-01-01T05:45:18.673Z,73.87
2023-01-01T05:56:01.098Z,74.17
2023-01-01T06:01:19.446Z,74.01
2023-01-01T06:06:40.598Z,73.36
2023-01-01T06:11:49.499Z,73.67
2023-01-01T06:16:54.561Z,73.54
2023-01-01T06:22:06.978Z,73.27
2023-01-01T06:27:18.273Z,73.35
2023-01-01T06:32:25.840Z,73.27
2023-01-01T06:37:32.702Z,72.78
2023-01-01T06:42:46.572Z,73.05
2023-01-01T06:48:03.977Z,73.12
2023-01-01T06:53:14.810Z,73.12
2023-01-01T06:58:22.282Z,73.21
2023-01-01T07:03:34.623Z,73.17
2023-01-01T07:08:53.385Z,73.40
2023-01-01T07:14:07.388Z,73.59
2023-01-01T07:19:13.422Z,74.02
2023-01-01T07:24:23.057Z,73.89
2023-01-01T07:29:39.289Z,73.78
2023-01-01T07:34:55.653Z,73.76
2023-01-01T07:40:06.145Z,74.26
2023-01-01T07:45:44.062Z,74.26
2023-01-01T07:50:49.227Z,74.04
2023-01-01T07:55:54.668Z,73.74
2023-01-01T08:01:03.526Z,74.21
2023-01-01T08:06:20.831Z,73.80
2023-01-01T08:11:33.085Z,73.89
2023-01-01T08:16:51.745Z,73.55
2023-01-01T08:22:02.141Z,72.63
2023-01-01T08:27:08.927Z,72.87
2023-01-01T08:32:20.285Z,72.34
2023-01-01T08:42:56.952Z,71.53
2023-01-01T08:48:37.947Z,71.06
2023-01-01T08:53:50.629Z,70.83
2023-01-01T08:59:04.436Z,70.01
2023-01-01T09:04:15.934Z,69.18
2023-01-01T09:09:22.279Z,68.59
2023-01-01T09:14:47.336Z,67.90
2023-01-01T09:20:00.012Z,67.19
2023-01-01T09:25:13.092Z,66.84
2023-01-01T09:30:22.150Z,66.76
2023-01-01T09:35:33.895Z,66.73
2023-01-01T09:40:51.744Z,66.87
2023-01-01T09:46:01.579Z,66.51
2023-01-01T09:51:19.981Z,66.14
2023-01-01T09:56:38.579Z,65.98
2023-01-01T10:01:59.411Z,66.16
2023-01-01T10:07:27.619Z,65.94
2023-01-01T10:12:42.624Z,66.10
2023-01-01T10:17:50.910Z,66.52
2023-01-01T10:23:06.577Z,66.73
2023-01-01T10:28:30.465Z,66.77
2023-01-01T10:33:36.247Z,66.67
2023-01-01T10:38:44.245Z,66.29
2023-01-01T10:44:04.773Z,66.12
2023-01-01T10:49:20.380Z,66.15
2023-01-01T10:54:38.520Z,65.66
2023-01-01T10:59:54.015Z,65.98
2023-01-01T11:05:22.360Z,65.51
2023-01-01T11:10:34.599Z,65.54
2023-01-01T11:15:49.402Z,65.55
2023-01-01T11:20:57.417Z,65.67
2023-01-01T11:26:19.557Z,65.78
2023-01-01T11:31:30.233Z,65.50
2023-01-01T11:36:37.154Z,65.67
2023-01-01T11:47:10.221Z,65.78
2023-01-01T11:52:31.834Z,65.73
2023-01-01T11:57:43.266Z,65.59
2023-01-01T12:02:55.147Z,65.54
2023-01-01T12:08:07.335Z,65.61
2023-01-01T12:13:29.051Z,65.59
2023-01-01T12:18:45.336Z,65.73
2023-01-01T12:23:51.124Z,65.99
2023-01-01T12:29:28.466Z,65.71
2023-01-01T12:34:40.380Z,65.84
2023-01-01T12:40:30.114Z,66.34
2023-01-01T12:46:23.562Z,66.35
2023-01-01T12:51:43.540Z,66.37
2023-01-01T12:57:02.566Z,66.29
2023-01-01T13:02:25.589Z,66.65
2023-01-01T13:07:58.713Z,66.17
2023-01-01T13:19:04.091Z,66.61
2023-01-01T13:24:26.778Z,66.39
2023-01-01T13:29:44.260Z,66.57
2023-01-01T13:35:17.433Z,66.89
2023-01-01T13:40:53.001Z,67.39
2023-01-01T13:46:16.325Z,67.30
2023-01-01T13:52:06.329Z,67.13
2023-01-01T13:57:33.996Z,67.28
2023-01-01T14:02:46.029Z,67.21
2023-01-01T14:07:54.815Z,67.08
2023-01-01T14:13:23.684Z,66.89
2023-01-01T14:18:36.090Z,67.19
2023-01-01T14:23:43.174Z,67.32
2023-01-01T14:28:51.532Z,67.51
2023-01-01T14:33:58.262Z,67.34
2023-01-01T14:39:02.861Z,67.53
2023-01-01T14:44:15.796Z,67.54
2023-01-01T14:49:25.679Z,67.67
2023-01-01T14:54:43.440Z,67.82
2023-01-01T15:00:21.029Z,67.76
2023-01-01T15:05:38.978Z,67.99
2023-01-01T15:10:46.168Z,67.99
2023-01-01T15:16:08.409Z,68.18
2023-01-01T15:21:54.024Z,68.10
2023-01-01T15:27:10.252Z,68.67
2023-01-01T15:32:28.517Z,68.88
2023-01-01T15:37:37.965Z,69.41
2023-01-01T15:42:50.207Z,69.70
2023-01-01T15:48:22.906Z,70.20
2023-01-01T15:53:29.963Z,70.31
2023-01-01T15:58:41.212Z,70.33
2023-01-01T16:03:56.771Z,69.98
2023-01-01T16:09:27.025Z,70.01
2023-01-01T16:14:34.379Z,69.52
2023-01-01T16:20:02.346Z,69.98
2023-01-01T16:25:16.607Z,69.65
2023-01-01T16:30:41.565Z,70.01
2023-01-01T16:35:55.635Z,69.79
2023-01-01T16:41:01.367Z,69.90
2023-01-01T16:46:24.710Z,70.00
2023-01-01T16:51:34.731Z,70.81
2023-01-01T16:56:39.861Z,71.05
2023-01-01T17:01:53.669Z,71.28
2023-01-01T17:07:10.950Z,71.37
2023-01-01T17:12:16.949Z,71.31
2023-01-01T17:17:22.138Z,71.89
2023-01-01T17:22:37.218Z,71.82
2023-01-01T17:27:45.759Z,71.93
2023-01-01T17:32:51.096Z,72.32
2023-01-01T17:37:59.828Z,72.33
2023-01-01T17:43:04.941Z,72.38
2023-01-01T17:48:09.294Z,72.40
2023-01-01T17:53:16.396Z,72.04
2023-01-01T17:58:25.265Z,72.21
2023-01-01T18:03:32.969Z,72.11
2023-01-01T18:08:52.159Z,72.07
2023-01-01T18:13:59.167Z,71.57
2023-01-01T18:19:15.257Z,71.61
2023-01-01T18:24:24.200Z,71.63
2023-01-01T18:29:34.885Z,71.08
2023-01-01T18:34:46.491Z,71.23
2023-01-01T18:40:00.363Z,71.05
2023-01-01T18:45:31.649Z,71.26
2023-01-01T18:50:40.127Z,71.57
2023-01-01T18:55:52.640Z,71.46
2023-01-01T19:01:04.136Z,71.00
2023-01-01T19:06:22.945Z,71.50
2023-01-01T19:11:29.940Z,71.42
2023-01-01T19:17:03.927Z,71.10
2023-01-01T19:22:25.859Z,70.82
2023-01-01T19:27:35.564Z,71.24
2023-01-01T19:32:47.514Z,70.99
2023-01-01T19:37:51.835Z,71.06
2023-01-01T19:43:00.117Z,70.62
2023-01-01T19:48:14.916Z,70.94
2023-01-01T19:53:24.390Z,70.30
2023-01-01T19:58:31.105Z,70.34
2023-01-01T20:03:55.093Z,70.74
2023-01-01T20:09:04.293Z,70.54
2023-01-01T20:14:13.103Z,70.46
2023-01-01T20:19:22.473Z,70.19
2023-01-01T20:24:39.779Z,70.45
2023-01-01T20:30:09.825Z,70.74
2023-01-01T20:35:41.283Z,70.24
2023-01-01T20:46:19.673Z,70.51
2023-01-01T20:51:27.994Z,70.54
2023-01-01T20:56:39.794Z,70.37
2023-01-01T21:01:53.923Z,69.67
2023-01-01T21:06:58.906Z,70.27
2023-01-01T21:12:03.130Z,69.66
2023-01-01T21:17:22.543Z,70.12
2023-01-01T21:22:31.099Z,70.44
2023-01-01T21:27:54.163Z,70.61
2023-01-01T21:33:03.901Z,70.42
2023-01-01T21:38:19.926Z,69.93
2023-01-01T21:43:39.772Z,70.39
2023-01-01T21:49:04.942Z,70.07
2023-01-01T21:54:27.956Z,69.89
2023-01-01T21:59:36.414Z,69.85
2023-01-01T22:04:47.639Z,70.03
2023-01-01T22:09:54.583Z,70.14
2023-01-01T22:15:36.264Z,70.02
2023-01-01T22:20:53.405Z,69.69
2023-01-01T22:25:57.750Z,69.04
2023-01-01T22:31:04.303Z,69.40
2023-01-01T22:36:17.850Z,69.24
2023-01-01T22:41:30.070Z,68.89
2023-01-01T22:46:47.270Z,69.02
2023-01-01T22:52:06.843Z,68.55
2023-01-01T22:57:11.708Z,68.59
2023-01-01T23:02:20.084Z,68.11
2023-01-01T23:07:30.208Z,68.14
2023-01-01T23:12:34.460Z,67.95
2023-01-01T23:17:39.519Z,67.94
2023-01-01T23:22:54.194Z,68.22
2023-01-01T23:28:04.605Z,67.95
2023-01-01T23:33:12.197Z,68.18
2023-01-01T23:38:22.170Z,68.26
2023-01-01T23:43:31.257Z,68.99
2023-01-01T23:48:36.140Z,68.88
2023-01-01T23:53:45.298Z,68.95
2023-01-01T23:58:50.464Z,69.09
